Terminal Aerodrome Forecast
Issued by NWS

Home | Current Version | Previous Version | Text Only | Print | Product List | Glossary On
Versions: 1 2 3 4 5 6 7 8 9 10 11 12 13 14 15 16
000
FTUS44 KBMX 252300
TAFTCL
TAF
KTCL 252339Z 2600/2624 23007G17KT P6SM BKN070 OVC090
      TEMPO 2602/2604 6SM SHRA BKN045 OVC070
     FM261000 30009G15KT P6SM OVC020
     FM262000 29007KT P6SM SKC=

USA.gov is the U.S. government's official web portal to all federal, state and local government web resources and services.